createdAt,value
2022-08-05T00:00:19.453Z,31.11
2022-08-05T00:02:51.639Z,31.11
2022-08-05T00:06:02.632Z,31.03
2022-08-05T00:08:35.182Z,30.98
2022-08-05T00:10:56.361Z,30.95
2022-08-05T00:13:39.444Z,30.98
2022-08-05T00:16:08.551Z,30.94
2022-08-05T00:18:36.079Z,30.94
2022-08-05T00:21:05.053Z,30.96
2022-08-05T00:23:46.060Z,30.90
2022-08-05T00:26:13.807Z,30.85
2022-08-05T00:28:43.209Z,30.87
2022-08-05T00:31:12.413Z,30.80
2022-08-05T00:34:54.292Z,30.75
2022-08-05T00:37:11.836Z,30.70
2022-08-05T00:39:13.799Z,30.69
2022-08-05T00:41:51.984Z,30.69
2022-08-05T00:44:23.176Z,30.70
2022-08-05T00:46:54.187Z,30.70
2022-08-05T00:49:32.574Z,30.67
2022-08-05T00:52:11.097Z,30.66
2022-08-05T00:54:38.646Z,30.66
2022-08-05T00:57:05.295Z,30.58
2022-08-05T00:59:34.744Z,30.52
2022-08-05T01:02:11.323Z,30.49
2022-08-05T01:04:38.007Z,30.44
2022-08-05T01:07:08.810Z,30.49
2022-08-05T01:09:41.857Z,30.43
2022-08-05T01:12:18.159Z,30.40
2022-08-05T01:14:48.874Z,30.38
2022-08-05T01:17:53.531Z,30.32
2022-08-05T01:20:58.044Z,30.32
2022-08-05T01:23:53.209Z,30.30
2022-08-05T01:26:54.023Z,30.31
2022-08-05T01:29:30.767Z,30.31
2022-08-05T01:32:00.722Z,30.28
2022-08-05T01:34:38.044Z,30.29
2022-08-05T01:37:25.437Z,30.24
2022-08-05T01:39:54.659Z,30.29
2022-08-05T01:42:25.449Z,30.31
2022-08-05T01:44:53.944Z,30.24
2022-08-05T01:47:21.182Z,30.18
2022-08-05T01:50:02.227Z,30.19
2022-08-05T01:52:30.145Z,30.13
2022-08-05T01:54:58.076Z,30.05
2022-08-05T01:58:29.709Z,30.08
2022-08-05T02:00:19.308Z,29.97
2022-08-05T02:02:54.357Z,29.97
2022-08-05T02:05:23.711Z,29.97
2022-08-05T02:07:57.830Z,29.94
2022-08-05T02:10:28.687Z,29.88
2022-08-05T02:12:57.062Z,29.91
2022-08-05T02:15:24.910Z,29.83
2022-08-05T02:18:32.447Z,29.81
2022-08-05T02:20:58.638Z,29.76
2022-08-05T02:23:29.144Z,29.73
2022-08-05T02:26:00.608Z,29.69
2022-08-05T02:28:32.125Z,29.68
2022-08-05T02:31:14.617Z,29.67
2022-08-05T02:33:45.094Z,29.62
2022-08-05T02:36:16.608Z,29.58
2022-08-05T02:38:53.167Z,29.52
2022-08-05T02:41:20.570Z,29.44
2022-08-05T02:44:06.503Z,29.38
2022-08-05T02:46:36.374Z,29.33
2022-08-05T02:49:20.267Z,29.31
2022-08-05T02:52:03.190Z,29.24
2022-08-05T02:54:34.841Z,29.29
2022-08-05T02:57:03.342Z,29.22
2022-08-05T02:59:50.717Z,29.21
2022-08-05T03:02:20.452Z,29.27
2022-08-05T03:04:47.124Z,29.21
2022-08-05T03:07:48.456Z,29.24
2022-08-05T03:10:07.238Z,29.22
2022-08-05T03:12:34.994Z,29.20
2022-08-05T03:15:01.591Z,29.14
2022-08-05T03:17:28.559Z,29.14
2022-08-05T03:19:55.308Z,29.06
2022-08-05T03:22:32.175Z,29.01
2022-08-05T03:25:31.499Z,29.00
2022-08-05T03:27:58.883Z,28.94
2022-08-05T03:30:33.751Z,28.91
2022-08-05T03:33:05.780Z,28.93
2022-08-05T03:35:33.884Z,28.90
2022-08-05T03:38:07.302Z,28.96
2022-08-05T03:40:34.261Z,28.91
2022-08-05T03:43:15.968Z,28.83
2022-08-05T03:45:57.728Z,28.83
2022-08-05T03:48:27.173Z,28.90
2022-08-05T03:52:49.112Z,28.93
2022-08-05T03:55:50.442Z,28.89
2022-08-05T03:56:50.981Z,28.69
2022-08-05T03:59:29.243Z,28.82
2022-08-05T04:02:17.336Z,28.71
2022-08-05T04:04:44.891Z,28.59
2022-08-05T04:07:11.580Z,28.70
2022-08-05T04:09:39.786Z,28.70
2022-08-05T04:12:24.445Z,28.64
2022-08-05T04:14:51.527Z,28.72
2022-08-05T04:17:18.167Z,28.71
2022-08-05T04:19:46.395Z,28.75
2022-08-05T04:22:21.355Z,28.74
2022-08-05T04:24:52.812Z,28.60
2022-08-05T04:27:19.775Z,28.69
2022-08-05T04:30:07.237Z,28.71
2022-08-05T04:32:33.837Z,28.80
2022-08-05T04:35:03.008Z,28.79
2022-08-05T04:38:02.864Z,28.81
2022-08-05T04:40:19.784Z,28.82
2022-08-05T04:42:46.514Z,28.83
2022-08-05T04:45:14.165Z,28.86
2022-08-05T04:47:49.698Z,28.94
2022-08-05T04:50:37.362Z,28.99
2022-08-05T04:53:04.311Z,28.99
2022-08-05T04:56:14.429Z,29.02
2022-08-05T04:58:17.811Z,29.09
2022-08-05T05:00:50.832Z,29.15
2022-08-05T05:03:18.800Z,29.22
2022-08-05T05:06:40.199Z,29.31
2022-08-05T05:08:33.631Z,29.38
2022-08-05T05:11:00.389Z,29.45
2022-08-05T05:13:26.981Z,29.53
2022-08-05T05:16:02.179Z,29.60
2022-08-05T05:18:33.829Z,29.65
2022-08-05T05:21:01.595Z,29.74
2022-08-05T05:23:38.772Z,29.90
2022-08-05T05:26:14.748Z,29.98
2022-08-05T05:28:44.842Z,30.12
2022-08-05T05:31:11.909Z,30.27
2022-08-05T05:33:59.732Z,30.36
2022-08-05T05:36:25.182Z,30.51
2022-08-05T05:38:55.600Z,30.68
2022-08-05T05:41:22.265Z,30.81
2022-08-05T05:43:57.345Z,30.81
2022-08-05T05:46:26.767Z,31.04
2022-08-05T05:48:53.404Z,31.15
2022-08-05T05:51:21.613Z,31.40
2022-08-05T05:53:57.941Z,31.39
2022-08-05T05:56:32.528Z,31.48
2022-08-05T05:59:03.541Z,31.73
2022-08-05T06:01:37.897Z,31.78
2022-08-05T06:04:12.948Z,31.96
2022-08-05T06:06:42.810Z,31.92
2022-08-05T06:09:16.700Z,32.15
2022-08-05T06:11:59.480Z,32.26
2022-08-05T06:14:27.951Z,32.65
2022-08-05T06:16:55.583Z,33.14
2022-08-05T06:19:26.199Z,33.26
2022-08-05T06:22:02.798Z,33.46
2022-08-05T06:24:29.977Z,33.39
2022-08-05T06:26:57.690Z,33.24
2022-08-05T06:29:49.240Z,33.68
2022-08-05T06:32:21.195Z,33.91
2022-08-05T06:34:53.584Z,34.05
2022-08-05T06:37:55.570Z,34.33
2022-08-05T06:40:10.142Z,34.15
2022-08-05T06:42:37.086Z,34.79
2022-08-05T06:45:08.781Z,34.96
2022-08-05T06:48:37.317Z,34.96
2022-08-05T06:50:23.507Z,35.40
2022-08-05T06:53:03.648Z,35.55
2022-08-05T06:55:37.016Z,35.38
2022-08-05T06:58:29.238Z,35.75
2022-08-05T07:00:50.902Z,36.07
2022-08-05T07:03:17.602Z,36.37
2022-08-05T07:05:44.637Z,36.85
2022-08-05T07:08:13.073Z,37.17
2022-08-05T07:10:52.879Z,37.82
2022-08-05T07:13:59.468Z,38.17
2022-08-05T07:18:01.494Z,38.23
2022-08-05T07:22:28.271Z,40.62
2022-08-05T07:25:23.909Z,41.11
2022-08-05T07:27:57.586Z,41.69
2022-08-05T07:30:34.307Z,42.68
2022-08-05T07:33:09.005Z,43.86
2022-08-05T07:36:05.300Z,44.11
2022-08-05T07:38:32.993Z,44.01
2022-08-05T07:41:16.861Z,44.96
2022-08-05T07:43:49.308Z,45.76
2022-08-05T07:46:20.745Z,45.90
2022-08-05T07:49:02.030Z,46.05
2022-08-05T07:51:36.798Z,45.08
2022-08-05T07:54:09.535Z,45.97
2022-08-05T07:57:01.305Z,46.05
2022-08-05T07:59:31.007Z,45.86
2022-08-05T08:02:07.563Z,46.62
2022-08-05T08:04:42.990Z,46.60
2022-08-05T08:07:11.969Z,46.70
2022-08-05T08:09:38.612Z,45.10
2022-08-05T08:12:11.460Z,46.35
2022-08-05T08:14:47.065Z,46.79
2022-08-05T08:17:16.055Z,46.98
2022-08-05T08:20:43.383Z,45.60
2022-08-05T08:22:34.852Z,44.57
2022-08-05T08:25:02.808Z,44.71
2022-08-05T08:27:40.419Z,44.43
2022-08-05T08:30:19.617Z,44.27
2022-08-05T08:33:04.593Z,43.76
2022-08-05T08:35:41.460Z,43.32
2022-08-05T08:38:35.706Z,43.41
2022-08-05T08:41:05.724Z,42.52
2022-08-05T08:45:20.003Z,42.67
2022-08-05T08:46:20.811Z,43.86
2022-08-05T08:49:06.196Z,43.70
2022-08-05T08:52:02.850Z,43.20
2022-08-05T08:54:21.056Z,43.68
2022-08-05T08:56:54.076Z,44.15
2022-08-05T08:59:23.218Z,43.47
2022-08-05T09:01:57.582Z,43.88
2022-08-05T09:04:30.357Z,42.65
2022-08-05T09:06:57.680Z,41.90
2022-08-05T09:09:25.196Z,42.59
2022-08-05T09:11:54.757Z,42.59
2022-08-05T09:14:58.531Z,43.27
2022-08-05T09:17:40.089Z,43.13
2022-08-05T09:20:02.658Z,43.72
2022-08-05T09:23:04.937Z,43.73
2022-08-05T09:26:02.193Z,44.09
2022-08-05T09:28:32.602Z,44.79
2022-08-05T09:31:44.096Z,43.72
2022-08-05T09:34:01.047Z,43.52
2022-08-05T09:36:54.402Z,43.52
2022-08-05T09:39:39.157Z,44.41
2022-08-05T09:42:11.452Z,44.64
2022-08-05T09:44:50.621Z,43.46
2022-08-05T09:47:20.624Z,44.24
2022-08-05T09:50:01.931Z,45.21
2022-08-05T09:52:35.786Z,44.13
2022-08-05T09:55:58.100Z,44.17
2022-08-05T09:58:00.049Z,44.38
2022-08-05T10:00:27.809Z,44.70
2022-08-05T10:02:58.251Z,44.92
2022-08-05T10:05:27.033Z,45.06
2022-08-05T10:08:35.203Z,45.06
2022-08-05T10:10:44.559Z,45.99
2022-08-05T10:13:11.613Z,45.06
2022-08-05T10:15:41.808Z,44.85
2022-08-05T10:18:20.398Z,44.03
2022-08-05T10:20:50.058Z,44.04
2022-08-05T10:23:58.858Z,44.03
2022-08-05T10:26:32.604Z,43.73
2022-08-05T10:29:00.683Z,42.83
2022-08-05T10:32:52.972Z,42.66
2022-08-05T10:34:13.915Z,42.41
2022-08-05T10:36:41.233Z,41.91
2022-08-05T10:39:14.990Z,42.05
2022-08-05T10:42:01.492Z,42.23
2022-08-05T10:44:28.184Z,42.83
2022-08-05T10:46:56.387Z,41.76
2022-08-05T10:49:27.167Z,41.58
2022-08-05T10:52:02.399Z,42.39
2022-08-05T10:55:04.727Z,42.37
2022-08-05T10:57:31.984Z,42.59
2022-08-05T11:00:27.327Z,42.31
2022-08-05T11:02:59.251Z,43.19
2022-08-05T11:06:03.710Z,43.23
2022-08-05T11:08:39.221Z,42.04
2022-08-05T11:11:33.214Z,41.94
2022-08-05T11:14:12.472Z,42.04
2022-08-05T11:16:56.665Z,42.44
2022-08-05T11:20:10.335Z,42.72
2022-08-05T11:22:50.102Z,42.59
2022-08-05T11:26:10.075Z,43.26
2022-08-05T11:28:38.042Z,43.25
2022-08-05T11:31:07.678Z,43.59
2022-08-05T11:33:46.592Z,43.92
2022-08-05T11:36:34.286Z,43.89
2022-08-05T11:39:12.048Z,44.10
2022-08-05T11:42:01.673Z,43.80
2022-08-05T11:44:52.946Z,44.11
2022-08-05T11:47:22.142Z,43.71
2022-08-05T11:50:07.654Z,43.99
2022-08-05T11:52:34.316Z,44.15
2022-08-05T11:55:07.282Z,43.80
2022-08-05T11:58:08.315Z,43.31
2022-08-05T12:00:28.801Z,43.29
2022-08-05T12:02:56.589Z,43.26
2022-08-05T12:05:32.247Z,43.28
2022-08-05T12:08:11.006Z,43.43
2022-08-05T12:10:45.925Z,43.27
2022-08-05T12:13:27.687Z,42.73
2022-08-05T12:16:14.532Z,43.09
2022-08-05T12:18:42.735Z,42.88
2022-08-05T12:21:29.988Z,43.25
2022-08-05T12:24:04.645Z,43.56
2022-08-05T12:26:48.524Z,43.78
2022-08-05T12:29:23.682Z,43.84
2022-08-05T12:31:54.627Z,44.07
2022-08-05T12:34:25.756Z,44.18
2022-08-05T12:36:53.495Z,43.97
2022-08-05T12:39:20.275Z,43.89
2022-08-05T12:41:46.935Z,43.90
2022-08-05T12:44:21.662Z,43.72
2022-08-05T12:47:00.155Z,43.21
2022-08-05T12:50:04.594Z,42.59
2022-08-05T12:52:29.575Z,42.39
2022-08-05T12:55:00.441Z,42.59
2022-08-05T12:57:28.790Z,42.71
2022-08-05T13:02:00.104Z,42.53
2022-08-05T13:03:12.320Z,42.59
2022-08-05T13:05:41.597Z,42.45
2022-08-05T13:08:08.879Z,42.56
2022-08-05T13:10:50.660Z,42.37
2022-08-05T13:14:07.348Z,42.77
2022-08-05T13:16:12.389Z,42.88
2022-08-05T13:18:55.141Z,42.98
2022-08-05T13:21:28.267Z,42.66
2022-08-05T13:24:05.542Z,42.59
2022-08-05T13:26:32.174Z,42.27
2022-08-05T13:28:59.212Z,42.20
2022-08-05T13:32:03.386Z,42.15
2022-08-05T13:34:22.020Z,42.10
2022-08-05T13:36:52.068Z,42.10
2022-08-05T13:39:24.649Z,41.80
2022-08-05T13:42:05.403Z,41.94
2022-08-05T13:44:32.635Z,41.91
2022-08-05T13:47:02.562Z,42.04
2022-08-05T13:49:35.253Z,42.06
2022-08-05T13:52:12.431Z,41.67
2022-08-05T13:54:39.280Z,41.45
2022-08-05T13:57:06.492Z,41.63
2022-08-05T13:59:33.152Z,41.32
2022-08-05T14:02:02.873Z,41.44
2022-08-05T14:04:52.115Z,41.43
2022-08-05T14:07:59.475Z,41.36
2022-08-05T14:10:28.197Z,41.34
2022-08-05T14:12:55.900Z,41.32
2022-08-05T14:16:09.255Z,41.39
2022-08-05T14:18:14.674Z,41.04
2022-08-05T14:20:46.989Z,41.03
2022-08-05T14:23:14.795Z,41.14
2022-08-05T14:25:54.220Z,41.18
2022-08-05T14:28:26.314Z,41.21
2022-08-05T14:30:54.636Z,40.91
2022-08-05T14:33:22.792Z,40.84
2022-08-05T14:35:52.072Z,40.55
2022-08-05T14:38:31.612Z,40.49
2022-08-05T14:41:00.958Z,40.48
2022-08-05T14:43:59.271Z,40.21
2022-08-05T14:46:14.048Z,40.29
2022-08-05T14:48:40.754Z,40.29
2022-08-05T14:51:08.368Z,40.41
2022-08-05T14:53:44.161Z,40.32
2022-08-05T14:56:11.173Z,40.40
2022-08-05T14:58:38.541Z,40.27
2022-08-05T15:01:16.103Z,40.28
2022-08-05T15:03:43.449Z,40.28
2022-08-05T15:06:15.146Z,40.29
2022-08-05T15:09:01.173Z,40.39
2022-08-05T15:11:52.831Z,40.33
2022-08-05T15:14:33.256Z,40.23
2022-08-05T15:17:03.793Z,40.01
2022-08-05T15:19:31.058Z,40.10
2022-08-05T15:22:00.271Z,40.05
2022-08-05T15:24:28.081Z,40.08
2022-08-05T15:26:55.780Z,39.99
2022-08-05T15:29:23.013Z,39.99
2022-08-05T15:31:53.016Z,39.98
2022-08-05T15:34:32.119Z,40.03
2022-08-05T15:37:03.444Z,39.73
2022-08-05T15:41:02.879Z,39.95
2022-08-05T15:42:54.804Z,39.98
2022-08-05T15:45:06.485Z,40.01
2022-08-05T15:47:35.894Z,39.97
2022-08-05T15:50:02.760Z,39.95
2022-08-05T15:52:51.769Z,40.00
2022-08-05T15:55:17.686Z,40.00
2022-08-05T15:57:48.862Z,39.66
2022-08-05T16:00:26.419Z,39.60
2022-08-05T16:02:57.980Z,39.67
2022-08-05T16:05:28.187Z,39.70
2022-08-05T16:07:55.184Z,39.68
2022-08-05T16:10:25.570Z,39.70
2022-08-05T16:12:55.979Z,39.69
2022-08-05T16:15:23.326Z,39.46
2022-08-05T16:17:57.859Z,39.52
2022-08-05T16:20:25.499Z,39.46
2022-08-05T16:22:52.837Z,39.43
2022-08-05T16:25:19.508Z,39.47
2022-08-05T16:28:00.340Z,39.35
2022-08-05T16:30:32.261Z,39.40
2022-08-05T16:32:59.362Z,39.36
2022-08-05T16:35:28.252Z,39.36
2022-08-05T16:38:03.657Z,39.37
2022-08-05T16:40:52.068Z,39.33
2022-08-05T16:43:27.287Z,39.25
2022-08-05T16:46:04.010Z,39.18
2022-08-05T16:48:35.820Z,39.23
2022-08-05T16:51:08.720Z,39.13
2022-08-05T16:54:03.480Z,39.10
2022-08-05T16:56:23.732Z,39.15
2022-08-05T16:58:50.564Z,39.15
2022-08-05T17:01:18.763Z,39.03
2022-08-05T17:03:45.830Z,39.00
2022-08-05T17:06:12.641Z,39.05
2022-08-05T17:08:53.230Z,39.00
2022-08-05T17:11:23.433Z,38.93
2022-08-05T17:13:50.657Z,38.91
2022-08-05T17:16:32.796Z,38.88
2022-08-05T17:19:00.590Z,38.86
2022-08-05T17:21:35.333Z,38.71
2022-08-05T17:24:18.391Z,38.66
2022-08-05T17:26:53.533Z,38.66
2022-08-05T17:29:22.788Z,38.70
2022-08-05T17:32:00.724Z,38.67
2022-08-05T17:34:29.725Z,38.57
2022-08-05T17:36:58.732Z,38.49
2022-08-05T17:39:33.965Z,38.43
2022-08-05T17:42:17.558Z,38.43
2022-08-05T17:44:50.808Z,38.36
2022-08-05T17:47:22.477Z,38.33
2022-08-05T17:50:00.030Z,38.30
2022-08-05T17:52:31.864Z,38.21
2022-08-05T17:54:58.473Z,38.16
2022-08-05T17:57:25.093Z,38.12
2022-08-05T18:00:04.937Z,38.06
2022-08-05T18:02:34.231Z,38.00
2022-08-05T18:05:06.287Z,37.93
2022-08-05T18:07:41.321Z,37.85
2022-08-05T18:10:10.339Z,37.78
2022-08-05T18:12:37.338Z,37.70
2022-08-05T18:15:04.295Z,37.64
2022-08-05T18:17:58.994Z,37.54
2022-08-05T18:20:19.471Z,37.49
2022-08-05T18:22:57.221Z,37.39
2022-08-05T18:25:25.002Z,37.33
2022-08-05T18:27:52.213Z,37.23
2022-08-05T18:30:19.211Z,37.18
2022-08-05T18:32:53.180Z,37.13
2022-08-05T18:35:21.036Z,37.04
2022-08-05T18:38:07.779Z,36.99
2022-08-05T18:41:53.994Z,36.94
2022-08-05T18:43:21.670Z,36.88
2022-08-05T18:45:49.736Z,36.85
2022-08-05T18:48:30.473Z,36.78
2022-08-05T18:52:06.152Z,36.73
2022-08-05T18:54:04.088Z,36.69
2022-08-05T18:56:30.698Z,36.61
2022-08-05T18:59:01.214Z,36.58
2022-08-05T19:01:33.181Z,36.51
2022-08-05T19:04:13.963Z,36.44
2022-08-05T19:06:50.845Z,36.38
2022-08-05T19:09:17.530Z,36.31
2022-08-05T19:12:00.015Z,36.22
2022-08-05T19:14:44.536Z,36.17
2022-08-05T19:17:15.794Z,36.12
2022-08-05T19:19:48.546Z,36.08
2022-08-05T19:22:17.178Z,36.03
2022-08-05T19:24:55.778Z,36.00
2022-08-05T19:27:24.174Z,35.94
2022-08-05T19:29:57.179Z,35.93
2022-08-05T19:32:25.902Z,35.90
2022-08-05T19:34:54.693Z,35.85
2022-08-05T19:37:29.887Z,35.78
2022-08-05T19:40:02.144Z,35.74
2022-08-05T19:42:36.302Z,35.70
2022-08-05T19:45:05.637Z,35.66
2022-08-05T19:47:33.905Z,35.62
2022-08-05T19:50:01.134Z,35.60
2022-08-05T19:52:31.854Z,35.56
2022-08-05T19:55:00.505Z,35.52
2022-08-05T19:58:02.766Z,35.49
2022-08-05T20:00:20.813Z,35.43
2022-08-05T20:02:47.549Z,35.38
2022-08-05T20:05:16.415Z,35.35
2022-08-05T20:07:55.042Z,35.34
2022-08-05T20:10:24.987Z,35.34
2022-08-05T20:12:51.801Z,35.32
2022-08-05T20:15:47.809Z,35.29
2022-08-05T20:18:10.807Z,35.26
2022-08-05T20:20:55.323Z,35.19
2022-08-05T20:23:23.827Z,35.13
2022-08-05T20:26:07.487Z,35.11
2022-08-05T20:28:34.318Z,35.09
2022-08-05T20:31:02.686Z,35.05
2022-08-05T20:33:29.525Z,35.02
2022-08-05T20:35:57.675Z,34.97
2022-08-05T20:38:26.863Z,34.91
2022-08-05T20:40:55.497Z,34.86
2022-08-05T20:43:33.185Z,34.81
2022-08-05T20:46:10.359Z,34.83
2022-08-05T20:48:44.940Z,34.82
2022-08-05T20:51:17.596Z,34.83
2022-08-05T20:53:44.192Z,34.79
2022-08-05T20:56:28.954Z,34.77
2022-08-05T20:59:00.047Z,34.74
2022-08-05T21:01:38.526Z,34.70
2022-08-05T21:04:07.259Z,34.66
2022-08-05T21:06:36.947Z,34.61
2022-08-05T21:09:07.882Z,34.59
2022-08-05T21:12:07.206Z,34.53
2022-08-05T21:14:26.695Z,34.52
2022-08-05T21:16:53.489Z,34.46
2022-08-05T21:19:20.201Z,34.45
2022-08-05T21:21:50.581Z,34.42
2022-08-05T21:24:19.690Z,34.38
2022-08-05T21:26:57.959Z,34.32
2022-08-05T21:29:26.483Z,34.29
2022-08-05T21:31:57.933Z,34.27
2022-08-05T21:34:24.516Z,34.25
2022-08-05T21:36:51.126Z,34.22
2022-08-05T21:39:26.776Z,34.19
2022-08-05T21:42:01.964Z,34.17
2022-08-05T21:44:32.084Z,34.14
2022-08-05T21:46:58.998Z,34.11
2022-08-05T21:49:48.342Z,34.07
2022-08-05T21:52:15.900Z,34.03
2022-08-05T21:54:54.941Z,33.96
2022-08-05T21:57:31.456Z,33.89
2022-08-05T22:00:05.290Z,33.87
2022-08-05T22:02:33.713Z,33.87
2022-08-05T22:05:00.395Z,33.81
2022-08-05T22:07:40.452Z,33.75
2022-08-05T22:10:15.164Z,33.70
2022-08-05T22:12:45.015Z,33.67
2022-08-05T22:16:01.660Z,33.66
2022-08-05T22:18:04.541Z,33.61
2022-08-05T22:20:31.188Z,33.57
2022-08-05T22:23:21.444Z,33.53
2022-08-05T22:26:10.403Z,33.48
2022-08-05T22:28:38.245Z,33.46
2022-08-05T22:31:05.848Z,33.46
2022-08-05T22:33:57.134Z,33.47
2022-08-05T22:36:19.431Z,33.39
2022-08-05T22:38:50.923Z,33.36
2022-08-05T22:42:05.671Z,33.35
2022-08-05T22:44:05.470Z,33.37
2022-08-05T22:46:32.045Z,33.34
2022-08-05T22:48:59.147Z,33.29
2022-08-05T22:52:04.547Z,33.31
2022-08-05T22:54:12.349Z,33.28
2022-08-05T22:56:40.037Z,33.21
2022-08-05T22:59:43.917Z,33.18
2022-08-05T23:02:06.048Z,33.12
2022-08-05T23:04:34.649Z,33.15
2022-08-05T23:07:01.503Z,33.09
2022-08-05T23:09:57.199Z,33.08
2022-08-05T23:12:17.762Z,33.04
2022-08-05T23:14:44.588Z,33.00
2022-08-05T23:17:24.523Z,32.98
2022-08-05T23:20:02.315Z,32.91
2022-08-05T23:22:29.244Z,32.83
2022-08-05T23:24:57.486Z,32.85
2022-08-05T23:27:24.260Z,32.77
2022-08-05T23:29:57.820Z,32.74
2022-08-05T23:32:24.742Z,32.68
2022-08-05T23:34:53.761Z,32.69
2022-08-05T23:37:20.369Z,32.59
2022-08-05T23:39:54.157Z,32.52
2022-08-05T23:42:23.510Z,32.46
2022-08-05T23:44:55.752Z,32.46
2022-08-05T23:47:22.389Z,32.43
2022-08-05T23:49:52.207Z,32.35
2022-08-05T23:52:26.471Z,32.30
2022-08-05T23:54:58.041Z,32.28
2022-08-05T23:57:25.959Z,32.20
